KMAF/MAF METAR and TAF weather

Enter ICAO airport designator
Station Type Date Time Source
KMAF METAR 2021/08/05 03:53 UTC NOAA

KMAF 050353Z 05011KT 8SM BKN070 26/13 A3012 RMK AO2 SLP154 T02610128


Station Type Date Time Source
KMAF Decoded METAR 2021/08/05 03:53 UTC NOAA

MIDLAND INTERNATIONAL AIRPORT , TX, United States (KMAF) 31-56N 102-12W 872M
Aug 04, 2021 - 11:53 PM EDT / 2021.08.05 0353 UTC
Wind: from the NE (050 degrees) at 13 MPH (11 KT):0
Visibility: 8 mile(s):0
Sky conditions: mostly cloudy
Temperature: 79.0 F (26.1 C)
Dew Point: 55.0 F (12.8 C)
Relative Humidity: 43%
Pressure (altimeter): 30.12 in. Hg (1019 hPa)
ob: KMAF 050353Z 05011KT 8SM BKN070 26/13 A3012 RMK AO2 SLP154 T02610128
cycle: 4

Station Type Date Time Source
KMAF TAF 2021/08/05 03:18 UTC NOAA

TAF
AMD KMAF 050316Z 0503/0524 05008KT P6SM FEW150
FM051500 17008KT P6SM SCT150

Example: see airport list